sensor_id;sensor_type;location;lat;lon;timestamp;temperature;humidity
21895;DHT22;11112;51.270;7.224;2023-07-13T00:01:52;22.60;66.40
21895;DHT22;11112;51.270;7.224;2023-07-13T00:04:22;22.60;66.50
21895;DHT22;11112;51.270;7.224;2023-07-13T00:06:50;22.60;66.60
21895;DHT22;11112;51.270;7.224;2023-07-13T00:09:19;22.60;66.50
21895;DHT22;11112;51.270;7.224;2023-07-13T00:11:52;22.60;66.70
21895;DHT22;11112;51.270;7.224;2023-07-13T00:14:20;22.60;66.80
21895;DHT22;11112;51.270;7.224;2023-07-13T00:16:48;22.50;66.60
21895;DHT22;11112;51.270;7.224;2023-07-13T00:19:15;22.50;66.70
21895;DHT22;11112;51.270;7.224;2023-07-13T00:21:43;22.50;67.00
21895;DHT22;11112;51.270;7.224;2023-07-13T00:24:13;22.50;67.30
21895;DHT22;11112;51.270;7.224;2023-07-13T00:26:42;22.50;67.10
21895;DHT22;11112;51.270;7.224;2023-07-13T00:29:11;22.40;67.40
21895;DHT22;11112;51.270;7.224;2023-07-13T00:31:38;22.40;67.60
21895;DHT22;11112;51.270;7.224;2023-07-13T00:34:06;22.40;67.60
21895;DHT22;11112;51.270;7.224;2023-07-13T00:36:33;22.30;67.50
21895;DHT22;11112;51.270;7.224;2023-07-13T00:39:01;22.30;67.70
21895;DHT22;11112;51.270;7.224;2023-07-13T00:41:29;22.30;68.00
21895;DHT22;11112;51.270;7.224;2023-07-13T00:43:56;22.20;68.00
21895;DHT22;11112;51.270;7.224;2023-07-13T00:46:26;22.20;68.10
21895;DHT22;11112;51.270;7.224;2023-07-13T00:48:57;22.20;68.30
21895;DHT22;11112;51.270;7.224;2023-07-13T00:51:40;22.20;68.30
21895;DHT22;11112;51.270;7.224;2023-07-13T00:54:16;22.20;68.60
21895;DHT22;11112;51.270;7.224;2023-07-13T00:56:47;22.10;68.60
21895;DHT22;11112;51.270;7.224;2023-07-13T00:59:17;22.10;68.60
21895;DHT22;11112;51.270;7.224;2023-07-13T01:01:45;22.10;68.70
21895;DHT22;11112;51.270;7.224;2023-07-13T01:04:12;22.10;68.60
21895;DHT22;11112;51.270;7.224;2023-07-13T01:06:40;22.10;68.60
21895;DHT22;11112;51.270;7.224;2023-07-13T01:09:11;22.00;68.50
21895;DHT22;11112;51.270;7.224;2023-07-13T01:11:38;22.00;68.60
21895;DHT22;11112;51.270;7.224;2023-07-13T01:14:06;22.00;68.80
21895;DHT22;11112;51.270;7.224;2023-07-13T01:16:36;21.90;68.70
21895;DHT22;11112;51.270;7.224;2023-07-13T01:19:10;21.90;68.80
21895;DHT22;11112;51.270;7.224;2023-07-13T01:21:42;21.90;69.00
21895;DHT22;11112;51.270;7.224;2023-07-13T01:24:09;21.90;69.10
21895;DHT22;11112;51.270;7.224;2023-07-13T01:26:36;22.00;69.20
21895;DHT22;11112;51.270;7.224;2023-07-13T01:29:04;22.00;69.20
21895;DHT22;11112;51.270;7.224;2023-07-13T01:31:31;21.90;69.10
21895;DHT22;11112;51.270;7.224;2023-07-13T01:33:58;21.90;69.20
21895;DHT22;11112;51.270;7.224;2023-07-13T01:36:25;21.90;69.30
21895;DHT22;11112;51.270;7.224;2023-07-13T01:38:53;21.80;69.40
21895;DHT22;11112;51.270;7.224;2023-07-13T01:41:20;21.80;69.50
21895;DHT22;11112;51.270;7.224;2023-07-13T01:43:47;21.80;69.60
21895;DHT22;11112;51.270;7.224;2023-07-13T01:46:14;21.70;69.60
21895;DHT22;11112;51.270;7.224;2023-07-13T01:48:41;21.70;69.80
21895;DHT22;11112;51.270;7.224;2023-07-13T01:51:08;21.80;70.00
21895;DHT22;11112;51.270;7.224;2023-07-13T01:53:35;21.70;69.90
21895;DHT22;11112;51.270;7.224;2023-07-13T01:56:04;21.70;70.10
21895;DHT22;11112;51.270;7.224;2023-07-13T01:58:31;21.70;70.00
21895;DHT22;11112;51.270;7.224;2023-07-13T02:00:58;21.70;70.00
21895;DHT22;11112;51.270;7.224;2023-07-13T02:03:25;21.70;70.10
21895;DHT22;11112;51.270;7.224;2023-07-13T02:05:52;21.60;70.20
21895;DHT22;11112;51.270;7.224;2023-07-13T02:08:19;21.60;70.30
21895;DHT22;11112;51.270;7.224;2023-07-13T02:10:46;21.70;70.20
21895;DHT22;11112;51.270;7.224;2023-07-13T02:13:14;21.60;70.20
21895;DHT22;11112;51.270;7.224;2023-07-13T02:15:41;21.60;70.40
21895;DHT22;11112;51.270;7.224;2023-07-13T02:18:08;21.60;70.40
21895;DHT22;11112;51.270;7.224;2023-07-13T02:20:35;21.60;70.50
21895;DHT22;11112;51.270;7.224;2023-07-13T02:23:03;21.50;70.70
21895;DHT22;11112;51.270;7.224;2023-07-13T02:25:30;21.60;70.70
21895;DHT22;11112;51.270;7.224;2023-07-13T02:27:57;21.50;70.70
21895;DHT22;11112;51.270;7.224;2023-07-13T02:30:25;21.50;70.90
21895;DHT22;11112;51.270;7.224;2023-07-13T02:32:55;21.50;70.80
21895;DHT22;11112;51.270;7.224;2023-07-13T02:35:23;21.50;71.00
21895;DHT22;11112;51.270;7.224;2023-07-13T02:37:50;21.40;71.00
21895;DHT22;11112;51.270;7.224;2023-07-13T02:40:18;21.50;71.10
21895;DHT22;11112;51.270;7.224;2023-07-13T02:42:45;21.50;71.20
21895;DHT22;11112;51.270;7.224;2023-07-13T02:45:12;21.40;71.40
21895;DHT22;11112;51.270;7.224;2023-07-13T02:47:42;21.40;71.60
21895;DHT22;11112;51.270;7.224;2023-07-13T02:50:09;21.40;71.80
21895;DHT22;11112;51.270;7.224;2023-07-13T02:52:36;21.40;71.90
21895;DHT22;11112;51.270;7.224;2023-07-13T02:55:04;21.40;72.00
21895;DHT22;11112;51.270;7.224;2023-07-13T02:57:31;21.40;72.20
21895;DHT22;11112;51.270;7.224;2023-07-13T02:59:59;21.40;73.20
21895;DHT22;11112;51.270;7.224;2023-07-13T03:02:26;21.40;72.20
21895;DHT22;11112;51.270;7.224;2023-07-13T03:04:56;21.40;72.40
21895;DHT22;11112;51.270;7.224;2023-07-13T03:07:23;21.30;73.20
21895;DHT22;11112;51.270;7.224;2023-07-13T03:09:54;21.30;72.70
21895;DHT22;11112;51.270;7.224;2023-07-13T03:12:22;21.30;72.70
21895;DHT22;11112;51.270;7.224;2023-07-13T03:14:50;21.30;72.90
21895;DHT22;11112;51.270;7.224;2023-07-13T03:17:17;21.20;72.80
21895;DHT22;11112;51.270;7.224;2023-07-13T03:19:44;21.20;73.00
21895;DHT22;11112;51.270;7.224;2023-07-13T03:22:16;21.20;73.10
21895;DHT22;11112;51.270;7.224;2023-07-13T03:24:43;21.20;73.30
21895;DHT22;11112;51.270;7.224;2023-07-13T03:27:10;21.20;73.40
21895;DHT22;11112;51.270;7.224;2023-07-13T03:29:38;21.20;73.40
21895;DHT22;11112;51.270;7.224;2023-07-13T03:32:06;21.20;73.50
21895;DHT22;11112;51.270;7.224;2023-07-13T03:34:33;21.20;73.80
21895;DHT22;11112;51.270;7.224;2023-07-13T03:37:00;21.20;74.00
21895;DHT22;11112;51.270;7.224;2023-07-13T03:39:29;21.20;74.10
21895;DHT22;11112;51.270;7.224;2023-07-13T03:41:56;21.20;74.40
21895;DHT22;11112;51.270;7.224;2023-07-13T03:44:23;21.20;74.20
21895;DHT22;11112;51.270;7.224;2023-07-13T03:46:50;21.20;74.30
21895;DHT22;11112;51.270;7.224;2023-07-13T03:49:17;21.20;74.40
21895;DHT22;11112;51.270;7.224;2023-07-13T03:51:44;21.10;74.50
21895;DHT22;11112;51.270;7.224;2023-07-13T03:54:11;21.10;74.60
21895;DHT22;11112;51.270;7.224;2023-07-13T03:56:40;21.20;74.80
21895;DHT22;11112;51.270;7.224;2023-07-13T03:59:07;21.10;75.00
21895;DHT22;11112;51.270;7.224;2023-07-13T04:01:34;21.10;75.00
21895;DHT22;11112;51.270;7.224;2023-07-13T04:04:01;21.10;75.00
21895;DHT22;11112;51.270;7.224;2023-07-13T04:06:30;21.10;75.00
21895;DHT22;11112;51.270;7.224;2023-07-13T04:08:59;21.10;75.40
21895;DHT22;11112;51.270;7.224;2023-07-13T04:11:30;21.10;75.40
21895;DHT22;11112;51.270;7.224;2023-07-13T04:13:59;21.10;75.40
21895;DHT22;11112;51.270;7.224;2023-07-13T04:16:28;21.10;75.20
21895;DHT22;11112;51.270;7.224;2023-07-13T04:18:56;21.10;75.20
21895;DHT22;11112;51.270;7.224;2023-07-13T04:21:26;21.10;75.30
21895;DHT22;11112;51.270;7.224;2023-07-13T04:23:53;21.10;75.30
21895;DHT22;11112;51.270;7.224;2023-07-13T04:26:21;21.10;75.40
21895;DHT22;11112;51.270;7.224;2023-07-13T04:28:49;21.10;75.40
21895;DHT22;11112;51.270;7.224;2023-07-13T04:31:18;21.10;76.20
21895;DHT22;11112;51.270;7.224;2023-07-13T04:33:45;21.10;75.50
21895;DHT22;11112;51.270;7.224;2023-07-13T04:36:12;21.10;75.40
21895;DHT22;11112;51.270;7.224;2023-07-13T04:38:39;21.10;75.30
21895;DHT22;11112;51.270;7.224;2023-07-13T04:41:07;21.10;75.40
21895;DHT22;11112;51.270;7.224;2023-07-13T04:43:36;21.10;75.40
21895;DHT22;11112;51.270;7.224;2023-07-13T04:46:04;21.10;75.30
21895;DHT22;11112;51.270;7.224;2023-07-13T04:48:34;21.10;75.20
21895;DHT22;11112;51.270;7.224;2023-07-13T04:51:01;21.10;75.00
21895;DHT22;11112;51.270;7.224;2023-07-13T04:53:29;21.10;75.00
21895;DHT22;11112;51.270;7.224;2023-07-13T04:55:56;21.10;75.40
21895;DHT22;11112;51.270;7.224;2023-07-13T04:58:24;21.10;75.50
21895;DHT22;11112;51.270;7.224;2023-07-13T05:00:51;21.10;75.80
21895;DHT22;11112;51.270;7.224;2023-07-13T05:03:18;21.10;76.00
21895;DHT22;11112;51.270;7.224;2023-07-13T05:05:56;21.10;76.00
21895;DHT22;11112;51.270;7.224;2023-07-13T05:08:24;21.20;75.90
21895;DHT22;11112;51.270;7.224;2023-07-13T05:10:52;21.20;76.00
21895;DHT22;11112;51.270;7.224;2023-07-13T05:13:19;21.30;75.80
21895;DHT22;11112;51.270;7.224;2023-07-13T05:15:55;21.30;76.00
21895;DHT22;11112;51.270;7.224;2023-07-13T05:18:22;21.30;76.00
21895;DHT22;11112;51.270;7.224;2023-07-13T05:20:57;21.30;76.00
21895;DHT22;11112;51.270;7.224;2023-07-13T05:23:26;21.40;76.20
21895;DHT22;11112;51.270;7.224;2023-07-13T05:25:53;21.40;76.20
21895;DHT22;11112;51.270;7.224;2023-07-13T05:28:21;21.30;76.50
21895;DHT22;11112;51.270;7.224;2023-07-13T05:30:49;21.30;76.60
21895;DHT22;11112;51.270;7.224;2023-07-13T05:33:17;21.30;76.80
21895;DHT22;11112;51.270;7.224;2023-07-13T05:35:44;21.20;78.00
21895;DHT22;11112;51.270;7.224;2023-07-13T05:38:12;21.10;77.30
21895;DHT22;11112;51.270;7.224;2023-07-13T05:40:42;21.10;77.80
21895;DHT22;11112;51.270;7.224;2023-07-13T05:43:09;21.20;78.00
21895;DHT22;11112;51.270;7.224;2023-07-13T05:45:37;21.10;77.90
21895;DHT22;11112;51.270;7.224;2023-07-13T05:48:04;21.10;78.10
21895;DHT22;11112;51.270;7.224;2023-07-13T05:50:31;21.10;78.30
21895;DHT22;11112;51.270;7.224;2023-07-13T05:52:58;21.10;78.30
21895;DHT22;11112;51.270;7.224;2023-07-13T05:55:27;21.20;78.30
21895;DHT22;11112;51.270;7.224;2023-07-13T05:57:54;21.20;78.40
21895;DHT22;11112;51.270;7.224;2023-07-13T06:00:23;21.20;78.50
21895;DHT22;11112;51.270;7.224;2023-07-13T06:02:51;21.20;78.60
21895;DHT22;11112;51.270;7.224;2023-07-13T06:05:18;21.20;78.70
21895;DHT22;11112;51.270;7.224;2023-07-13T06:07:45;21.20;78.90
21895;DHT22;11112;51.270;7.224;2023-07-13T06:10:12;21.20;78.80
21895;DHT22;11112;51.270;7.224;2023-07-13T06:12:41;21.20;79.00
21895;DHT22;11112;51.270;7.224;2023-07-13T06:15:09;21.20;79.20
21895;DHT22;11112;51.270;7.224;2023-07-13T06:17:36;21.20;79.50
21895;DHT22;11112;51.270;7.224;2023-07-13T06:20:04;21.30;79.30
21895;DHT22;11112;51.270;7.224;2023-07-13T06:22:32;21.30;79.10
21895;DHT22;11112;51.270;7.224;2023-07-13T06:24:59;21.30;79.20
21895;DHT22;11112;51.270;7.224;2023-07-13T06:27:26;21.30;79.30
21895;DHT22;11112;51.270;7.224;2023-07-13T06:29:55;21.30;79.30
21895;DHT22;11112;51.270;7.224;2023-07-13T06:32:22;21.30;79.30
21895;DHT22;11112;51.270;7.224;2023-07-13T06:34:49;21.30;79.40
21895;DHT22;11112;51.270;7.224;2023-07-13T06:37:17;21.30;79.50
21895;DHT22;11112;51.270;7.224;2023-07-13T06:39:44;21.40;79.40
21895;DHT22;11112;51.270;7.224;2023-07-13T06:42:11;21.50;79.20
21895;DHT22;11112;51.270;7.224;2023-07-13T06:44:38;21.50;78.90
21895;DHT22;11112;51.270;7.224;2023-07-13T06:47:07;21.60;79.00
21895;DHT22;11112;51.270;7.224;2023-07-13T06:49:34;21.70;78.90
21895;DHT22;11112;51.270;7.224;2023-07-13T06:52:02;21.70;78.80
21895;DHT22;11112;51.270;7.224;2023-07-13T06:54:29;21.80;79.60
21895;DHT22;11112;51.270;7.224;2023-07-13T06:56:56;21.80;78.80
21895;DHT22;11112;51.270;7.224;2023-07-13T06:59:23;21.80;78.90
21895;DHT22;11112;51.270;7.224;2023-07-13T07:01:50;21.80;78.60
21895;DHT22;11112;51.270;7.224;2023-07-13T07:04:19;21.90;78.70
21895;DHT22;11112;51.270;7.224;2023-07-13T07:06:46;22.00;78.70
21895;DHT22;11112;51.270;7.224;2023-07-13T07:09:13;22.00;78.40
21895;DHT22;11112;51.270;7.224;2023-07-13T07:11:42;22.10;78.60
21895;DHT22;11112;51.270;7.224;2023-07-13T07:14:09;22.10;78.60
21895;DHT22;11112;51.270;7.224;2023-07-13T07:16:36;22.00;78.70
21895;DHT22;11112;51.270;7.224;2023-07-13T07:19:03;22.00;78.80
21895;DHT22;11112;51.270;7.224;2023-07-13T07:21:32;22.00;79.10
21895;DHT22;11112;51.270;7.224;2023-07-13T07:23:59;22.10;79.00
21895;DHT22;11112;51.270;7.224;2023-07-13T07:26:26;22.10;79.00
21895;DHT22;11112;51.270;7.224;2023-07-13T07:28:53;22.40;79.00
21895;DHT22;11112;51.270;7.224;2023-07-13T07:31:20;24.00;75.90
21895;DHT22;11112;51.270;7.224;2023-07-13T07:33:47;24.50;73.30
21895;DHT22;11112;51.270;7.224;2023-07-13T07:36:16;23.80;74.00
21895;DHT22;11112;51.270;7.224;2023-07-13T07:38:44;23.50;75.00
21895;DHT22;11112;51.270;7.224;2023-07-13T07:41:12;23.40;75.90
21895;DHT22;11112;51.270;7.224;2023-07-13T07:43:39;23.20;76.40
21895;DHT22;11112;51.270;7.224;2023-07-13T07:46:06;23.20;76.60
21895;DHT22;11112;51.270;7.224;2023-07-13T07:48:33;23.10;76.70
21895;DHT22;11112;51.270;7.224;2023-07-13T07:51:00;22.90;77.00
21895;DHT22;11112;51.270;7.224;2023-07-13T07:53:28;22.70;77.40
21895;DHT22;11112;51.270;7.224;2023-07-13T07:55:56;22.70;78.20
21895;DHT22;11112;51.270;7.224;2023-07-13T07:58:24;22.70;78.00
21895;DHT22;11112;51.270;7.224;2023-07-13T08:00:51;22.60;77.80
21895;DHT22;11112;51.270;7.224;2023-07-13T08:03:18;22.50;78.30
21895;DHT22;11112;51.270;7.224;2023-07-13T08:05:45;22.50;78.50
21895;DHT22;11112;51.270;7.224;2023-07-13T08:08:12;22.50;78.80
21895;DHT22;11112;51.270;7.224;2023-07-13T08:10:39;22.50;78.70
21895;DHT22;11112;51.270;7.224;2023-07-13T08:13:08;22.50;78.60
21895;DHT22;11112;51.270;7.224;2023-07-13T08:15:37;22.50;78.70
21895;DHT22;11112;51.270;7.224;2023-07-13T08:18:04;22.40;79.00
21895;DHT22;11112;51.270;7.224;2023-07-13T08:20:31;22.40;79.10
21895;DHT22;11112;51.270;7.224;2023-07-13T08:22:59;22.40;78.80
21895;DHT22;11112;51.270;7.224;2023-07-13T08:25:26;22.40;78.90
21895;DHT22;11112;51.270;7.224;2023-07-13T08:27:53;22.40;78.90
21895;DHT22;11112;51.270;7.224;2023-07-13T08:30:21;22.40;78.90
21895;DHT22;11112;51.270;7.224;2023-07-13T08:32:48;22.40;78.90
21895;DHT22;11112;51.270;7.224;2023-07-13T08:35:16;22.40;79.00
21895;DHT22;11112;51.270;7.224;2023-07-13T08:37:43;22.40;79.10
21895;DHT22;11112;51.270;7.224;2023-07-13T08:40:11;22.40;79.00
21895;DHT22;11112;51.270;7.224;2023-07-13T08:42:42;22.30;79.00
21895;DHT22;11112;51.270;7.224;2023-07-13T08:45:18;22.40;78.90
21895;DHT22;11112;51.270;7.224;2023-07-13T08:47:54;22.40;79.00
21895;DHT22;11112;51.270;7.224;2023-07-13T08:50:30;22.40;79.20
21895;DHT22;11112;51.270;7.224;2023-07-13T08:53:00;22.40;78.50
21895;DHT22;11112;51.270;7.224;2023-07-13T08:55:31;22.40;78.60
21895;DHT22;11112;51.270;7.224;2023-07-13T08:58:09;22.50;78.60
21895;DHT22;11112;51.270;7.224;2023-07-13T09:00:44;22.50;78.30
21895;DHT22;11112;51.270;7.224;2023-07-13T09:03:20;22.50;78.70
21895;DHT22;11112;51.270;7.224;2023-07-13T09:05:53;22.60;79.10
21895;DHT22;11112;51.270;7.224;2023-07-13T09:08:35;22.60;78.70
21895;DHT22;11112;51.270;7.224;2023-07-13T09:11:26;22.60;78.70
21895;DHT22;11112;51.270;7.224;2023-07-13T09:14:06;22.60;78.00
21895;DHT22;11112;51.270;7.224;2023-07-13T09:16:55;22.60;78.40
21895;DHT22;11112;51.270;7.224;2023-07-13T09:19:27;22.60;78.20
21895;DHT22;11112;51.270;7.224;2023-07-13T09:21:56;22.60;78.50
21895;DHT22;11112;51.270;7.224;2023-07-13T09:24:35;22.60;78.50
21895;DHT22;11112;51.270;7.224;2023-07-13T09:27:10;22.60;78.40
21895;DHT22;11112;51.270;7.224;2023-07-13T09:29:47;22.70;78.70
21895;DHT22;11112;51.270;7.224;2023-07-13T09:32:19;22.70;78.60
21895;DHT22;11112;51.270;7.224;2023-07-13T09:34:52;22.70;78.00
21895;DHT22;11112;51.270;7.224;2023-07-13T09:37:21;22.80;78.00
21895;DHT22;11112;51.270;7.224;2023-07-13T09:39:52;22.80;77.30
21895;DHT22;11112;51.270;7.224;2023-07-13T09:42:22;22.80;77.80
21895;DHT22;11112;51.270;7.224;2023-07-13T09:44:54;22.80;77.50
21895;DHT22;11112;51.270;7.224;2023-07-13T09:47:26;22.80;77.30
21895;DHT22;11112;51.270;7.224;2023-07-13T09:49:56;22.80;77.40
21895;DHT22;11112;51.270;7.224;2023-07-13T09:52:25;22.80;77.30
21895;DHT22;11112;51.270;7.224;2023-07-13T09:54:54;22.80;77.30
21895;DHT22;11112;51.270;7.224;2023-07-13T09:57:26;22.90;77.70
21895;DHT22;11112;51.270;7.224;2023-07-13T09:59:55;22.90;77.90
21895;DHT22;11112;51.270;7.224;2023-07-13T10:02:27;23.00;78.00
21895;DHT22;11112;51.270;7.224;2023-07-13T10:04:59;23.00;77.80
21895;DHT22;11112;51.270;7.224;2023-07-13T10:07:29;23.10;77.20
21895;DHT22;11112;51.270;7.224;2023-07-13T10:09:59;23.10;76.20
21895;DHT22;11112;51.270;7.224;2023-07-13T10:12:29;23.10;75.50
21895;DHT22;11112;51.270;7.224;2023-07-13T10:14:59;23.00;76.00
21895;DHT22;11112;51.270;7.224;2023-07-13T10:17:30;23.00;76.20
21895;DHT22;11112;51.270;7.224;2023-07-13T10:20:00;23.00;75.50
21895;DHT22;11112;51.270;7.224;2023-07-13T10:22:37;23.00;76.10
21895;DHT22;11112;51.270;7.224;2023-07-13T10:25:16;23.00;76.10
21895;DHT22;11112;51.270;7.224;2023-07-13T10:27:45;23.00;76.40
21895;DHT22;11112;51.270;7.224;2023-07-13T10:30:17;22.90;76.50
21895;DHT22;11112;51.270;7.224;2023-07-13T10:32:48;22.90;76.00
21895;DHT22;11112;51.270;7.224;2023-07-13T10:35:17;22.90;76.00
21895;DHT22;11112;51.270;7.224;2023-07-13T10:37:49;23.00;76.30
21895;DHT22;11112;51.270;7.224;2023-07-13T10:40:22;23.00;76.60
21895;DHT22;11112;51.270;7.224;2023-07-13T10:42:53;23.00;76.60
21895;DHT22;11112;51.270;7.224;2023-07-13T10:45:23;23.10;76.50
21895;DHT22;11112;51.270;7.224;2023-07-13T10:47:53;23.10;76.50
21895;DHT22;11112;51.270;7.224;2023-07-13T10:50:23;23.00;76.20
21895;DHT22;11112;51.270;7.224;2023-07-13T10:52:52;23.00;75.30
21895;DHT22;11112;51.270;7.224;2023-07-13T10:55:35;23.00;75.10
21895;DHT22;11112;51.270;7.224;2023-07-13T10:58:13;23.10;75.50
21895;DHT22;11112;51.270;7.224;2023-07-13T11:00:47;23.00;75.50
21895;DHT22;11112;51.270;7.224;2023-07-13T11:03:20;23.00;75.40
21895;DHT22;11112;51.270;7.224;2023-07-13T11:05:50;23.00;75.30
21895;DHT22;11112;51.270;7.224;2023-07-13T11:08:32;23.00;74.70
21895;DHT22;11112;51.270;7.224;2023-07-13T11:11:03;23.00;75.10
21895;DHT22;11112;51.270;7.224;2023-07-13T11:13:55;23.00;75.30
21895;DHT22;11112;51.270;7.224;2023-07-13T11:16:44;23.10;75.70
21895;DHT22;11112;51.270;7.224;2023-07-13T11:19:40;23.10;75.40
21895;DHT22;11112;51.270;7.224;2023-07-13T11:22:14;23.10;75.40
21895;DHT22;11112;51.270;7.224;2023-07-13T11:24:58;23.10;75.40
21895;DHT22;11112;51.270;7.224;2023-07-13T11:27:40;23.10;74.70
21895;DHT22;11112;51.270;7.224;2023-07-13T11:30:23;23.10;74.60
21895;DHT22;11112;51.270;7.224;2023-07-13T11:33:03;23.10;74.20
21895;DHT22;11112;51.270;7.224;2023-07-13T11:35:43;23.10;74.40
21895;DHT22;11112;51.270;7.224;2023-07-13T11:38:17;23.10;74.50
21895;DHT22;11112;51.270;7.224;2023-07-13T11:40:48;23.10;74.90
21895;DHT22;11112;51.270;7.224;2023-07-13T11:43:17;23.10;74.90
21895;DHT22;11112;51.270;7.224;2023-07-13T11:45:45;23.10;74.80
21895;DHT22;11112;51.270;7.224;2023-07-13T11:48:22;23.00;75.00
21895;DHT22;11112;51.270;7.224;2023-07-13T11:50:56;23.10;74.80
21895;DHT22;11112;51.270;7.224;2023-07-13T11:53:27;23.10;74.10
21895;DHT22;11112;51.270;7.224;2023-07-13T11:55:57;23.10;73.90
21895;DHT22;11112;51.270;7.224;2023-07-13T11:58:25;23.10;73.90
21895;DHT22;11112;51.270;7.224;2023-07-13T12:00:55;23.10;74.30
21895;DHT22;11112;51.270;7.224;2023-07-13T12:03:26;23.00;74.50
21895;DHT22;11112;51.270;7.224;2023-07-13T12:06:04;23.10;74.70
21895;DHT22;11112;51.270;7.224;2023-07-13T12:08:37;23.10;74.30
21895;DHT22;11112;51.270;7.224;2023-07-13T12:11:14;23.10;74.20
21895;DHT22;11112;51.270;7.224;2023-07-13T12:13:44;23.20;74.00
21895;DHT22;11112;51.270;7.224;2023-07-13T12:16:16;23.20;74.00
21895;DHT22;11112;51.270;7.224;2023-07-13T12:18:44;23.20;73.70
21895;DHT22;11112;51.270;7.224;2023-07-13T12:21:18;23.10;73.50
21895;DHT22;11112;51.270;7.224;2023-07-13T12:23:48;23.10;73.20
21895;DHT22;11112;51.270;7.224;2023-07-13T12:26:17;23.20;73.50
21895;DHT22;11112;51.270;7.224;2023-07-13T12:28:48;23.20;73.10
21895;DHT22;11112;51.270;7.224;2023-07-13T12:31:32;23.20;73.30
21895;DHT22;11112;51.270;7.224;2023-07-13T12:34:05;23.20;73.60
21895;DHT22;11112;51.270;7.224;2023-07-13T12:36:37;23.20;73.50
21895;DHT22;11112;51.270;7.224;2023-07-13T12:39:15;23.20;72.40
21895;DHT22;11112;51.270;7.224;2023-07-13T12:41:44;23.20;72.40
21895;DHT22;11112;51.270;7.224;2023-07-13T12:44:14;23.20;71.60
21895;DHT22;11112;51.270;7.224;2023-07-13T12:46:56;23.20;70.50
21895;DHT22;11112;51.270;7.224;2023-07-13T12:49:29;23.30;70.60
21895;DHT22;11112;51.270;7.224;2023-07-13T12:52:04;23.30;70.80
21895;DHT22;11112;51.270;7.224;2023-07-13T12:54:39;23.30;71.50
21895;DHT22;11112;51.270;7.224;2023-07-13T12:57:12;23.30;71.70
21895;DHT22;11112;51.270;7.224;2023-07-13T12:59:43;23.30;72.10
21895;DHT22;11112;51.270;7.224;2023-07-13T13:02:25;23.30;72.10
21895;DHT22;11112;51.270;7.224;2023-07-13T13:04:55;23.30;72.90
21895;DHT22;11112;51.270;7.224;2023-07-13T13:07:25;23.30;73.00
21895;DHT22;11112;51.270;7.224;2023-07-13T13:09:53;23.40;71.50
21895;DHT22;11112;51.270;7.224;2023-07-13T13:12:20;23.40;71.40
21895;DHT22;11112;51.270;7.224;2023-07-13T13:14:48;23.40;70.70
21895;DHT22;11112;51.270;7.224;2023-07-13T13:17:19;23.40;70.40
21895;DHT22;11112;51.270;7.224;2023-07-13T13:19:49;23.40;69.90
21895;DHT22;11112;51.270;7.224;2023-07-13T13:22:18;23.40;68.70
21895;DHT22;11112;51.270;7.224;2023-07-13T13:24:47;23.40;68.70
21895;DHT22;11112;51.270;7.224;2023-07-13T13:27:15;23.50;69.60
21895;DHT22;11112;51.270;7.224;2023-07-13T13:29:44;23.50;69.40
21895;DHT22;11112;51.270;7.224;2023-07-13T13:32:13;23.50;69.60
21895;DHT22;11112;51.270;7.224;2023-07-13T13:34:41;23.50;70.80
21895;DHT22;11112;51.270;7.224;2023-07-13T13:37:18;23.60;69.70
21895;DHT22;11112;51.270;7.224;2023-07-13T13:39:48;23.60;69.00
21895;DHT22;11112;51.270;7.224;2023-07-13T13:42:16;23.60;67.90
21895;DHT22;11112;51.270;7.224;2023-07-13T13:44:43;23.60;67.20
21895;DHT22;11112;51.270;7.224;2023-07-13T13:47:25;23.60;67.20
21895;DHT22;11112;51.270;7.224;2023-07-13T13:49:56;23.60;67.50
21895;DHT22;11112;51.270;7.224;2023-07-13T13:52:24;23.60;66.90
21895;DHT22;11112;51.270;7.224;2023-07-13T13:54:53;23.60;67.90
21895;DHT22;11112;51.270;7.224;2023-07-13T13:57:22;23.60;67.20
21895;DHT22;11112;51.270;7.224;2023-07-13T13:59:51;23.60;67.40
21895;DHT22;11112;51.270;7.224;2023-07-13T14:02:24;23.60;67.70
21895;DHT22;11112;51.270;7.224;2023-07-13T14:04:55;23.60;68.20
21895;DHT22;11112;51.270;7.224;2023-07-13T14:07:24;23.60;68.30
21895;DHT22;11112;51.270;7.224;2023-07-13T14:09:56;23.50;68.80
21895;DHT22;11112;51.270;7.224;2023-07-13T14:12:25;23.50;69.00
21895;DHT22;11112;51.270;7.224;2023-07-13T14:14:54;23.50;69.40
21895;DHT22;11112;51.270;7.224;2023-07-13T14:17:25;23.50;69.90
21895;DHT22;11112;51.270;7.224;2023-07-13T14:19:54;23.50;68.60
21895;DHT22;11112;51.270;7.224;2023-07-13T14:22:23;23.50;67.80
21895;DHT22;11112;51.270;7.224;2023-07-13T14:24:54;23.50;67.90
21895;DHT22;11112;51.270;7.224;2023-07-13T14:27:25;23.50;67.90
21895;DHT22;11112;51.270;7.224;2023-07-13T14:29:52;23.50;68.20
21895;DHT22;11112;51.270;7.224;2023-07-13T14:32:19;23.50;68.40
21895;DHT22;11112;51.270;7.224;2023-07-13T14:34:47;23.50;69.10
21895;DHT22;11112;51.270;7.224;2023-07-13T14:37:23;23.40;69.70
21895;DHT22;11112;51.270;7.224;2023-07-13T14:39:51;23.40;69.70
21895;DHT22;11112;51.270;7.224;2023-07-13T14:42:21;23.40;69.70
21895;DHT22;11112;51.270;7.224;2023-07-13T14:44:48;23.40;70.00
21895;DHT22;11112;51.270;7.224;2023-07-13T14:47:15;23.30;70.20
21895;DHT22;11112;51.270;7.224;2023-07-13T14:49:46;23.30;70.70
21895;DHT22;11112;51.270;7.224;2023-07-13T14:52:16;23.30;71.30
21895;DHT22;11112;51.270;7.224;2023-07-13T14:54:44;23.30;72.30
21895;DHT22;11112;51.270;7.224;2023-07-13T14:57:16;23.30;71.60
21895;DHT22;11112;51.270;7.224;2023-07-13T14:59:44;23.30;71.30
21895;DHT22;11112;51.270;7.224;2023-07-13T15:02:17;23.30;71.50
21895;DHT22;11112;51.270;7.224;2023-07-13T15:04:46;23.40;71.10
21895;DHT22;11112;51.270;7.224;2023-07-13T15:07:15;23.40;70.80
21895;DHT22;11112;51.270;7.224;2023-07-13T15:09:44;23.40;70.60
21895;DHT22;11112;51.270;7.224;2023-07-13T15:12:14;23.40;70.30
21895;DHT22;11112;51.270;7.224;2023-07-13T15:14:41;23.40;69.40
21895;DHT22;11112;51.270;7.224;2023-07-13T15:17:31;23.40;69.30
21895;DHT22;11112;51.270;7.224;2023-07-13T15:20:09;23.40;68.90
21895;DHT22;11112;51.270;7.224;2023-07-13T15:22:46;23.40;68.90
21895;DHT22;11112;51.270;7.224;2023-07-13T15:25:17;23.50;69.10
21895;DHT22;11112;51.270;7.224;2023-07-13T15:27:47;23.50;69.40
21895;DHT22;11112;51.270;7.224;2023-07-13T15:30:15;23.40;70.20
21895;DHT22;11112;51.270;7.224;2023-07-13T15:32:43;23.40;72.20
21895;DHT22;11112;51.270;7.224;2023-07-13T15:35:15;23.50;73.80
21895;DHT22;11112;51.270;7.224;2023-07-13T15:37:43;23.50;74.60
21895;DHT22;11112;51.270;7.224;2023-07-13T15:40:13;23.40;75.30
21895;DHT22;11112;51.270;7.224;2023-07-13T15:42:42;23.40;75.70
21895;DHT22;11112;51.270;7.224;2023-07-13T15:45:18;23.40;74.60
21895;DHT22;11112;51.270;7.224;2023-07-13T15:47:46;23.30;78.30